sensor_id;sensor_type;location;lat;lon;timestamp;P1;durP1;ratioP1;P2;durP2;ratioP2
50104;SDS011;47690;39.202;-77.198;2023-09-18T00:00:02;3.90;;;3.50;;
50104;SDS011;47690;39.202;-77.198;2023-09-18T00:02:47;3.67;;;3.30;;
50104;SDS011;47690;39.202;-77.198;2023-09-18T00:05:25;3.50;;;3.20;;
50104;SDS011;47690;39.202;-77.198;2023-09-18T00:07:59;3.67;;;3.28;;
50104;SDS011;47690;39.202;-77.198;2023-09-18T00:10:38;3.28;;;2.90;;
50104;SDS011;47690;39.202;-77.198;2023-09-18T00:13:10;3.88;;;3.20;;
50104;SDS011;47690;39.202;-77.198;2023-09-18T00:15:42;3.00;;;2.70;;
50104;SDS011;47690;39.202;-77.198;2023-09-18T00:18:18;3.67;;;3.20;;
50104;SDS011;47690;39.202;-77.198;2023-09-18T00:20:51;3.40;;;3.10;;
50104;SDS011;47690;39.202;-77.198;2023-09-18T00:23:23;4.35;;;3.03;;
50104;SDS011;47690;39.202;-77.198;2023-09-18T00:25:59;3.97;;;3.33;;
50104;SDS011;47690;39.202;-77.198;2023-09-18T00:28:33;4.15;;;3.30;;
50104;SDS011;47690;39.202;-77.198;2023-09-18T00:31:03;5.10;;;3.00;;
50104;SDS011;47690;39.202;-77.198;2023-09-18T00:33:39;5.30;;;3.15;;
50104;SDS011;47690;39.202;-77.198;2023-09-18T00:36:11;3.92;;;3.20;;
50104;SDS011;47690;39.202;-77.198;2023-09-18T00:38:50;3.60;;;3.15;;
50104;SDS011;47690;39.202;-77.198;2023-09-18T00:41:23;4.18;;;3.30;;
50104;SDS011;47690;39.202;-77.198;2023-09-18T00:44:02;3.63;;;3.25;;
50104;SDS011;47690;39.202;-77.198;2023-09-18T00:46:38;3.35;;;3.05;;
50104;SDS011;47690;39.202;-77.198;2023-09-18T00:49:09;3.70;;;2.88;;
50104;SDS011;47690;39.202;-77.198;2023-09-18T00:51:43;3.60;;;3.10;;
50104;SDS011;47690;39.202;-77.198;2023-09-18T00:54:18;3.42;;;2.85;;
50104;SDS011;47690;39.202;-77.198;2023-09-18T00:56:51;4.30;;;3.25;;
50104;SDS011;47690;39.202;-77.198;2023-09-18T00:59:26;4.03;;;2.95;;
50104;SDS011;47690;39.202;-77.198;2023-09-18T01:02:06;4.32;;;3.00;;
50104;SDS011;47690;39.202;-77.198;2023-09-18T01:04:40;3.20;;;2.90;;
50104;SDS011;47690;39.202;-77.198;2023-09-18T01:07:17;2.92;;;2.60;;
50104;SDS011;47690;39.202;-77.198;2023-09-18T01:09:49;2.92;;;2.63;;
50104;SDS011;47690;39.202;-77.198;2023-09-18T01:15:26;3.20;;;2.83;;
50104;SDS011;47690;39.202;-77.198;2023-09-18T01:18:06;3.70;;;3.10;;
50104;SDS011;47690;39.202;-77.198;2023-09-18T01:20:39;3.67;;;3.20;;
50104;SDS011;47690;39.202;-77.198;2023-09-18T01:23:14;4.20;;;3.20;;
50104;SDS011;47690;39.202;-77.198;2023-09-18T01:25:47;3.47;;;2.83;;
50104;SDS011;47690;39.202;-77.198;2023-09-18T01:28:25;3.80;;;3.03;;
50104;SDS011;47690;39.202;-77.198;2023-09-18T01:30:58;3.00;;;2.70;;
50104;SDS011;47690;39.202;-77.198;2023-09-18T01:33:34;3.22;;;2.92;;
50104;SDS011;47690;39.202;-77.198;2023-09-18T01:36:07;3.33;;;3.03;;
50104;SDS011;47690;39.202;-77.198;2023-09-18T01:38:45;3.53;;;2.80;;
50104;SDS011;47690;39.202;-77.198;2023-09-18T01:41:21;5.03;;;3.00;;
50104;SDS011;47690;39.202;-77.198;2023-09-18T01:43:53;5.20;;;3.05;;
50104;SDS011;47690;39.202;-77.198;2023-09-18T01:46:26;3.47;;;3.00;;
50104;SDS011;47690;39.202;-77.198;2023-09-18T01:49:01;2.97;;;2.67;;
50104;SDS011;47690;39.202;-77.198;2023-09-18T01:51:34;3.35;;;2.97;;
50104;SDS011;47690;39.202;-77.198;2023-09-18T01:54:06;3.30;;;2.88;;
50104;SDS011;47690;39.202;-77.198;2023-09-18T01:56:41;4.93;;;3.10;;
50104;SDS011;47690;39.202;-77.198;2023-09-18T01:59:12;4.25;;;3.30;;
50104;SDS011;47690;39.202;-77.198;2023-09-18T02:01:51;3.63;;;2.75;;
50104;SDS011;47690;39.202;-77.198;2023-09-18T02:04:37;3.20;;;2.75;;
50104;SDS011;47690;39.202;-77.198;2023-09-18T02:07:29;4.53;;;2.88;;
50104;SDS011;47690;39.202;-77.198;2023-09-18T02:10:07;3.33;;;3.03;;
50104;SDS011;47690;39.202;-77.198;2023-09-18T02:12:48;3.75;;;2.90;;
50104;SDS011;47690;39.202;-77.198;2023-09-18T02:15:21;2.95;;;2.65;;
50104;SDS011;47690;39.202;-77.198;2023-09-18T02:17:54;2.97;;;2.67;;
50104;SDS011;47690;39.202;-77.198;2023-09-18T02:20:29;3.33;;;3.00;;
50104;SDS011;47690;39.202;-77.198;2023-09-18T02:23:02;3.92;;;3.00;;
50104;SDS011;47690;39.202;-77.198;2023-09-18T02:25:35;3.22;;;2.92;;
50104;SDS011;47690;39.202;-77.198;2023-09-18T02:28:08;3.72;;;3.05;;
50104;SDS011;47690;39.202;-77.198;2023-09-18T02:30:42;4.55;;;3.03;;
50104;SDS011;47690;39.202;-77.198;2023-09-18T02:33:17;3.30;;;2.88;;
50104;SDS011;47690;39.202;-77.198;2023-09-18T02:35:47;3.40;;;2.92;;
50104;SDS011;47690;39.202;-77.198;2023-09-18T02:38:21;3.63;;;2.80;;
50104;SDS011;47690;39.202;-77.198;2023-09-18T02:40:53;3.75;;;2.90;;
50104;SDS011;47690;39.202;-77.198;2023-09-18T02:43:31;3.83;;;3.10;;
50104;SDS011;47690;39.202;-77.198;2023-09-18T02:46:08;3.50;;;3.00;;
50104;SDS011;47690;39.202;-77.198;2023-09-18T02:49:03;3.50;;;2.92;;
50104;SDS011;47690;39.202;-77.198;2023-09-18T02:51:55;3.95;;;3.10;;
50104;SDS011;47690;39.202;-77.198;2023-09-18T02:54:59;4.43;;;2.83;;
50104;SDS011;47690;39.202;-77.198;2023-09-18T02:57:35;4.00;;;2.70;;
50104;SDS011;47690;39.202;-77.198;2023-09-18T03:00:22;3.40;;;2.92;;
50104;SDS011;47690;39.202;-77.198;2023-09-18T03:03:11;3.75;;;2.90;;
50104;SDS011;47690;39.202;-77.198;2023-09-18T03:06:05;3.63;;;2.97;;
50104;SDS011;47690;39.202;-77.198;2023-09-18T03:08:53;4.25;;;2.90;;
50104;SDS011;47690;39.202;-77.198;2023-09-18T03:11:31;4.15;;;3.00;;
50104;SDS011;47690;39.202;-77.198;2023-09-18T03:14:41;4.78;;;3.00;;
50104;SDS011;47690;39.202;-77.198;2023-09-18T03:17:18;4.18;;;2.85;;
50104;SDS011;47690;39.202;-77.198;2023-09-18T03:20:18;4.05;;;2.63;;
50104;SDS011;47690;39.202;-77.198;2023-09-18T03:23:38;2.40;;;2.20;;
50104;SDS011;47690;39.202;-77.198;2023-09-18T03:26:27;3.50;;;2.50;;
50104;SDS011;47690;39.202;-77.198;2023-09-18T03:29:19;3.33;;;2.60;;
50104;SDS011;47690;39.202;-77.198;2023-09-18T03:32:26;3.10;;;2.60;;
50104;SDS011;47690;39.202;-77.198;2023-09-18T03:35:10;3.20;;;2.63;;
50104;SDS011;47690;39.202;-77.198;2023-09-18T03:37:55;3.00;;;2.70;;
50104;SDS011;47690;39.202;-77.198;2023-09-18T03:41:03;2.85;;;2.50;;
50104;SDS011;47690;39.202;-77.198;2023-09-18T03:43:53;3.85;;;2.83;;
50104;SDS011;47690;39.202;-77.198;2023-09-18T03:46:58;2.75;;;2.50;;
50104;SDS011;47690;39.202;-77.198;2023-09-18T03:49:46;3.30;;;2.65;;
50104;SDS011;47690;39.202;-77.198;2023-09-18T03:52:36;3.03;;;2.70;;
50104;SDS011;47690;39.202;-77.198;2023-09-18T03:55:59;2.97;;;2.67;;
50104;SDS011;47690;39.202;-77.198;2023-09-18T03:58:45;3.60;;;2.58;;
50104;SDS011;47690;39.202;-77.198;2023-09-18T04:01:25;4.13;;;3.05;;
50104;SDS011;47690;39.202;-77.198;2023-09-18T04:04:11;3.53;;;3.08;;
50104;SDS011;47690;39.202;-77.198;2023-09-18T04:07:42;4.35;;;2.63;;
50104;SDS011;47690;39.202;-77.198;2023-09-18T04:10:31;2.95;;;2.65;;
50104;SDS011;47690;39.202;-77.198;2023-09-18T04:13:05;3.95;;;2.83;;
50104;SDS011;47690;39.202;-77.198;2023-09-18T04:15:38;2.85;;;2.58;;
50104;SDS011;47690;39.202;-77.198;2023-09-18T04:18:23;3.38;;;3.08;;
50104;SDS011;47690;39.202;-77.198;2023-09-18T04:20:56;3.13;;;2.75;;
50104;SDS011;47690;39.202;-77.198;2023-09-18T04:23:53;3.92;;;2.90;;
50104;SDS011;47690;39.202;-77.198;2023-09-18T04:26:53;3.65;;;2.83;;
50104;SDS011;47690;39.202;-77.198;2023-09-18T04:30:28;3.30;;;2.80;;
50104;SDS011;47690;39.202;-77.198;2023-09-18T04:33:28;3.00;;;2.70;;
50104;SDS011;47690;39.202;-77.198;2023-09-18T04:36:32;2.90;;;2.60;;
50104;SDS011;47690;39.202;-77.198;2023-09-18T04:39:34;3.38;;;2.63;;
50104;SDS011;47690;39.202;-77.198;2023-09-18T04:42:27;3.00;;;2.70;;
50104;SDS011;47690;39.202;-77.198;2023-09-18T04:45:04;2.58;;;2.38;;
50104;SDS011;47690;39.202;-77.198;2023-09-18T04:47:39;3.95;;;2.78;;
50104;SDS011;47690;39.202;-77.198;2023-09-18T04:51:20;3.05;;;2.65;;
50104;SDS011;47690;39.202;-77.198;2023-09-18T04:54:54;2.58;;;2.38;;
50104;SDS011;47690;39.202;-77.198;2023-09-18T04:58:56;2.97;;;2.55;;
50104;SDS011;47690;39.202;-77.198;2023-09-18T05:01:51;4.03;;;2.70;;
50104;SDS011;47690;39.202;-77.198;2023-09-18T05:04:35;5.03;;;3.03;;
50104;SDS011;47690;39.202;-77.198;2023-09-18T05:07:23;4.28;;;2.70;;
50104;SDS011;47690;39.202;-77.198;2023-09-18T05:09:53;3.85;;;2.58;;
50104;SDS011;47690;39.202;-77.198;2023-09-18T05:12:34;3.35;;;2.78;;
50104;SDS011;47690;39.202;-77.198;2023-09-18T05:15:37;3.60;;;2.50;;
50104;SDS011;47690;39.202;-77.198;2023-09-18T05:18:14;4.07;;;2.80;;
50104;SDS011;47690;39.202;-77.198;2023-09-18T05:20:47;3.72;;;2.92;;
50104;SDS011;47690;39.202;-77.198;2023-09-18T05:23:24;3.92;;;2.70;;
50104;SDS011;47690;39.202;-77.198;2023-09-18T05:26:54;5.78;;;3.00;;
50104;SDS011;47690;39.202;-77.198;2023-09-18T05:29:26;5.60;;;2.80;;
50104;SDS011;47690;39.202;-77.198;2023-09-18T05:32:01;3.00;;;2.70;;
50104;SDS011;47690;39.202;-77.198;2023-09-18T05:34:39;4.60;;;2.90;;
50104;SDS011;47690;39.202;-77.198;2023-09-18T05:37:15;3.25;;;2.72;;
50104;SDS011;47690;39.202;-77.198;2023-09-18T05:40:01;6.28;;;2.60;;
50104;SDS011;47690;39.202;-77.198;2023-09-18T05:42:46;4.88;;;2.80;;
50104;SDS011;47690;39.202;-77.198;2023-09-18T05:45:46;3.10;;;2.80;;
50104;SDS011;47690;39.202;-77.198;2023-09-18T05:48:31;4.53;;;2.85;;
50104;SDS011;47690;39.202;-77.198;2023-09-18T05:51:12;4.10;;;2.70;;
50104;SDS011;47690;39.202;-77.198;2023-09-18T05:53:55;3.10;;;2.40;;
50104;SDS011;47690;39.202;-77.198;2023-09-18T05:56:29;2.55;;;2.28;;
50104;SDS011;47690;39.202;-77.198;2023-09-18T05:58:59;3.42;;;2.60;;
50104;SDS011;47690;39.202;-77.198;2023-09-18T06:01:38;4.65;;;2.55;;
50104;SDS011;47690;39.202;-77.198;2023-09-18T06:04:14;2.97;;;2.45;;
50104;SDS011;47690;39.202;-77.198;2023-09-18T06:07:08;3.15;;;2.22;;
50104;SDS011;47690;39.202;-77.198;2023-09-18T06:09:49;2.95;;;2.63;;
50104;SDS011;47690;39.202;-77.198;2023-09-18T06:12:27;3.63;;;2.50;;
50104;SDS011;47690;39.202;-77.198;2023-09-18T06:15:08;2.63;;;2.42;;
50104;SDS011;47690;39.202;-77.198;2023-09-18T06:18:02;3.20;;;2.67;;
50104;SDS011;47690;39.202;-77.198;2023-09-18T06:20:39;5.38;;;2.63;;
50104;SDS011;47690;39.202;-77.198;2023-09-18T06:23:28;5.13;;;2.70;;
50104;SDS011;47690;39.202;-77.198;2023-09-18T06:26:29;5.50;;;2.90;;
50104;SDS011;47690;39.202;-77.198;2023-09-18T06:29:06;4.00;;;2.72;;
50104;SDS011;47690;39.202;-77.198;2023-09-18T06:31:41;3.53;;;2.95;;
50104;SDS011;47690;39.202;-77.198;2023-09-18T06:34:17;3.35;;;2.50;;
50104;SDS011;47690;39.202;-77.198;2023-09-18T06:36:50;3.60;;;2.92;;
50104;SDS011;47690;39.202;-77.198;2023-09-18T06:39:39;3.17;;;2.80;;
50104;SDS011;47690;39.202;-77.198;2023-09-18T06:42:19;3.10;;;2.70;;
50104;SDS011;47690;39.202;-77.198;2023-09-18T06:45:03;3.22;;;2.92;;
50104;SDS011;47690;39.202;-77.198;2023-09-18T06:47:37;4.60;;;3.00;;
50104;SDS011;47690;39.202;-77.198;2023-09-18T06:50:18;3.20;;;2.90;;
50104;SDS011;47690;39.202;-77.198;2023-09-18T06:52:55;3.55;;;2.95;;
50104;SDS011;47690;39.202;-77.198;2023-09-18T06:55:29;4.03;;;3.08;;
50104;SDS011;47690;39.202;-77.198;2023-09-18T06:58:23;3.45;;;2.90;;
50104;SDS011;47690;39.202;-77.198;2023-09-18T07:01:40;3.00;;;2.70;;
50104;SDS011;47690;39.202;-77.198;2023-09-18T07:04:32;3.08;;;2.70;;
50104;SDS011;47690;39.202;-77.198;2023-09-18T07:07:23;2.85;;;2.55;;
50104;SDS011;47690;39.202;-77.198;2023-09-18T07:10:03;4.22;;;2.70;;
50104;SDS011;47690;39.202;-77.198;2023-09-18T07:12:55;4.18;;;2.60;;
50104;SDS011;47690;39.202;-77.198;2023-09-18T07:15:33;2.78;;;2.40;;
50104;SDS011;47690;39.202;-77.198;2023-09-18T07:18:07;2.92;;;2.50;;
50104;SDS011;47690;39.202;-77.198;2023-09-18T07:20:46;2.88;;;2.47;;
50104;SDS011;47690;39.202;-77.198;2023-09-18T07:23:21;2.42;;;2.20;;
50104;SDS011;47690;39.202;-77.198;2023-09-18T07:25:52;2.35;;;2.10;;
50104;SDS011;47690;39.202;-77.198;2023-09-18T07:28:31;2.65;;;2.35;;
50104;SDS011;47690;39.202;-77.198;2023-09-18T07:31:05;2.30;;;2.10;;
50104;SDS011;47690;39.202;-77.198;2023-09-18T07:33:43;2.30;;;2.10;;
50104;SDS011;47690;39.202;-77.198;2023-09-18T07:36:19;2.22;;;1.98;;
50104;SDS011;47690;39.202;-77.198;2023-09-18T07:38:50;2.05;;;1.85;;
50104;SDS011;47690;39.202;-77.198;2023-09-18T07:41:20;2.58;;;1.88;;
50104;SDS011;47690;39.202;-77.198;2023-09-18T07:43:54;3.42;;;1.88;;
50104;SDS011;47690;39.202;-77.198;2023-09-18T07:46:29;2.00;;;1.80;;
50104;SDS011;47690;39.202;-77.198;2023-09-18T07:49:03;3.13;;;2.20;;
50104;SDS011;47690;39.202;-77.198;2023-09-18T07:51:39;4.22;;;2.25;;
50104;SDS011;47690;39.202;-77.198;2023-09-18T07:54:14;6.03;;;2.33;;
50104;SDS011;47690;39.202;-77.198;2023-09-18T07:56:45;2.60;;;2.03;;
50104;SDS011;47690;39.202;-77.198;2023-09-18T07:59:16;2.17;;;1.98;;
50104;SDS011;47690;39.202;-77.198;2023-09-18T08:01:53;1.98;;;1.80;;
50104;SDS011;47690;39.202;-77.198;2023-09-18T08:04:26;2.10;;;1.90;;
50104;SDS011;47690;39.202;-77.198;2023-09-18T08:07:05;1.77;;;1.67;;
50104;SDS011;47690;39.202;-77.198;2023-09-18T08:09:36;1.85;;;1.70;;
50104;SDS011;47690;39.202;-77.198;2023-09-18T08:12:09;2.90;;;1.90;;
50104;SDS011;47690;39.202;-77.198;2023-09-18T08:14:43;2.03;;;1.85;;
50104;SDS011;47690;39.202;-77.198;2023-09-18T08:17:22;2.38;;;1.67;;
50104;SDS011;47690;39.202;-77.198;2023-09-18T08:19:52;2.88;;;2.13;;
50104;SDS011;47690;39.202;-77.198;2023-09-18T08:22:30;2.05;;;1.85;;
50104;SDS011;47690;39.202;-77.198;2023-09-18T08:25:08;3.55;;;2.25;;
50104;SDS011;47690;39.202;-77.198;2023-09-18T08:27:40;3.35;;;2.00;;
50104;SDS011;47690;39.202;-77.198;2023-09-18T08:30:16;2.08;;;1.88;;
50104;SDS011;47690;39.202;-77.198;2023-09-18T08:32:51;2.17;;;1.98;;
50104;SDS011;47690;39.202;-77.198;2023-09-18T08:35:31;2.33;;;2.13;;
50104;SDS011;47690;39.202;-77.198;2023-09-18T08:38:03;3.35;;;2.30;;
50104;SDS011;47690;39.202;-77.198;2023-09-18T08:40:40;2.20;;;2.00;;
50104;SDS011;47690;39.202;-77.198;2023-09-18T08:43:14;2.63;;;1.92;;
50104;SDS011;47690;39.202;-77.198;2023-09-18T08:45:51;2.88;;;2.00;;
50104;SDS011;47690;39.202;-77.198;2023-09-18T08:48:31;3.45;;;2.05;;
50104;SDS011;47690;39.202;-77.198;2023-09-18T08:51:07;3.45;;;2.38;;
50104;SDS011;47690;39.202;-77.198;2023-09-18T08:53:40;3.53;;;2.25;;
50104;SDS011;47690;39.202;-77.198;2023-09-18T08:56:10;2.85;;;2.03;;
50104;SDS011;47690;39.202;-77.198;2023-09-18T08:58:45;2.00;;;1.83;;
50104;SDS011;47690;39.202;-77.198;2023-09-18T09:01:17;2.08;;;1.85;;
50104;SDS011;47690;39.202;-77.198;2023-09-18T09:03:52;2.22;;;2.03;;
50104;SDS011;47690;39.202;-77.198;2023-09-18T09:06:27;2.28;;;2.08;;
50104;SDS011;47690;39.202;-77.198;2023-09-18T09:09:08;2.60;;;1.85;;
50104;SDS011;47690;39.202;-77.198;2023-09-18T09:11:50;2.20;;;2.00;;
50104;SDS011;47690;39.202;-77.198;2023-09-18T09:14:22;2.45;;;2.10;;
50104;SDS011;47690;39.202;-77.198;2023-09-18T09:16:58;2.38;;;2.10;;
50104;SDS011;47690;39.202;-77.198;2023-09-18T09:22:20;3.15;;;2.20;;
50104;SDS011;47690;39.202;-77.198;2023-09-18T09:25:04;3.60;;;2.10;;
50104;SDS011;47690;39.202;-77.198;2023-09-18T09:27:43;2.28;;;2.08;;
50104;SDS011;47690;39.202;-77.198;2023-09-18T09:30:19;2.22;;;1.77;;
50104;SDS011;47690;39.202;-77.198;2023-09-18T09:32:55;1.90;;;1.80;;
50104;SDS011;47690;39.202;-77.198;2023-09-18T09:38:12;2.13;;;1.92;;
50104;SDS011;47690;39.202;-77.198;2023-09-18T09:40:49;1.90;;;1.80;;
50104;SDS011;47690;39.202;-77.198;2023-09-18T09:43:31;2.63;;;2.03;;
50104;SDS011;47690;39.202;-77.198;2023-09-18T09:46:26;2.50;;;1.80;;
50104;SDS011;47690;39.202;-77.198;2023-09-18T09:49:03;1.83;;;1.73;;
50104;SDS011;47690;39.202;-77.198;2023-09-18T09:52:50;2.25;;;2.05;;
50104;SDS011;47690;39.202;-77.198;2023-09-18T09:55:41;2.17;;;1.98;;
50104;SDS011;47690;39.202;-77.198;2023-09-18T09:58:32;2.53;;;2.00;;
50104;SDS011;47690;39.202;-77.198;2023-09-18T10:01:58;2.00;;;1.80;;
50104;SDS011;47690;39.202;-77.198;2023-09-18T10:08:49;2.13;;;1.77;;
50104;SDS011;47690;39.202;-77.198;2023-09-18T10:11:27;2.97;;;2.00;;
50104;SDS011;47690;39.202;-77.198;2023-09-18T10:14:16;1.83;;;1.73;;
50104;SDS011;47690;39.202;-77.198;2023-09-18T10:17:27;2.17;;;1.85;;
50104;SDS011;47690;39.202;-77.198;2023-09-18T10:20:12;2.20;;;2.00;;
50104;SDS011;47690;39.202;-77.198;2023-09-18T10:22:52;2.05;;;1.85;;
50104;SDS011;47690;39.202;-77.198;2023-09-18T10:25:30;4.75;;;2.30;;
50104;SDS011;47690;39.202;-77.198;2023-09-18T10:28:01;3.63;;;2.10;;
50104;SDS011;47690;39.202;-77.198;2023-09-18T10:30:36;3.20;;;2.00;;
50104;SDS011;47690;39.202;-77.198;2023-09-18T10:33:10;2.15;;;1.95;;
50104;SDS011;47690;39.202;-77.198;2023-09-18T10:35:46;2.38;;;2.15;;
50104;SDS011;47690;39.202;-77.198;2023-09-18T10:38:19;2.45;;;2.25;;
50104;SDS011;47690;39.202;-77.198;2023-09-18T10:40:54;2.25;;;2.05;;
50104;SDS011;47690;39.202;-77.198;2023-09-18T10:46:38;2.88;;;2.00;;
50104;SDS011;47690;39.202;-77.198;2023-09-18T10:49:09;2.80;;;2.00;;
50104;SDS011;47690;39.202;-77.198;2023-09-18T10:51:47;2.20;;;2.00;;
50104;SDS011;47690;39.202;-77.198;2023-09-18T10:54:24;1.80;;;1.70;;
50104;SDS011;47690;39.202;-77.198;2023-09-18T10:56:58;2.40;;;2.20;;
50104;SDS011;47690;39.202;-77.198;2023-09-18T10:59:34;2.20;;;2.00;;
50104;SDS011;47690;39.202;-77.198;2023-09-18T11:02:19;2.25;;;2.05;;
50104;SDS011;47690;39.202;-77.198;2023-09-18T11:04:59;2.20;;;1.85;;
50104;SDS011;47690;39.202;-77.198;2023-09-18T11:07:33;2.80;;;1.75;;
50104;SDS011;47690;39.202;-77.198;2023-09-18T11:13:05;2.30;;;2.10;;
50104;SDS011;47690;39.202;-77.198;2023-09-18T11:15:46;3.17;;;1.77;;
50104;SDS011;47690;39.202;-77.198;2023-09-18T11:18:32;2.30;;;2.10;;
50104;SDS011;47690;39.202;-77.198;2023-09-18T11:21:08;2.50;;;2.10;;
50104;SDS011;47690;39.202;-77.198;2023-09-18T11:23:43;2.50;;;2.08;;
50104;SDS011;47690;39.202;-77.198;2023-09-18T11:26:18;2.60;;;2.10;;
50104;SDS011;47690;39.202;-77.198;2023-09-18T11:28:54;2.10;;;1.90;;
50104;SDS011;47690;39.202;-77.198;2023-09-18T11:31:40;2.30;;;2.08;;
50104;SDS011;47690;39.202;-77.198;2023-09-18T11:34:23;2.70;;;2.40;;
50104;SDS011;47690;39.202;-77.198;2023-09-18T11:37:21;2.15;;;1.95;;
50104;SDS011;47690;39.202;-77.198;2023-09-18T11:39:55;2.33;;;2.13;;
50104;SDS011;47690;39.202;-77.198;2023-09-18T11:42:33;2.80;;;2.50;;
50104;SDS011;47690;39.202;-77.198;2023-09-18T11:45:16;5.45;;;2.75;;
50104;SDS011;47690;39.202;-77.198;2023-09-18T11:47:54;2.92;;;2.60;;
50104;SDS011;47690;39.202;-77.198;2023-09-18T11:50:38;3.33;;;2.72;;
50104;SDS011;47690;39.202;-77.198;2023-09-18T11:53:23;3.05;;;2.50;;
50104;SDS011;47690;39.202;-77.198;2023-09-18T11:56:03;2.90;;;2.60;;
50104;SDS011;47690;39.202;-77.198;2023-09-18T11:58:48;2.42;;;2.22;;
50104;SDS011;47690;39.202;-77.198;2023-09-18T12:01:29;3.40;;;2.33;;
50104;SDS011;47690;39.202;-77.198;2023-09-18T12:04:09;3.10;;;2.55;;
50104;SDS011;47690;39.202;-77.198;2023-09-18T12:06:49;3.10;;;2.47;;
50104;SDS011;47690;39.202;-77.198;2023-09-18T12:09:27;2.92;;;2.13;;
50104;SDS011;47690;39.202;-77.198;2023-09-18T12:12:02;2.25;;;2.05;;
50104;SDS011;47690;39.202;-77.198;2023-09-18T12:14:37;2.60;;;2.40;;
50104;SDS011;47690;39.202;-77.198;2023-09-18T12:19:52;3.03;;;1.85;;
50104;SDS011;47690;39.202;-77.198;2023-09-18T12:22:28;2.20;;;2.00;;
50104;SDS011;47690;39.202;-77.198;2023-09-18T12:27:44;2.70;;;1.88;;
50104;SDS011;47690;39.202;-77.198;2023-09-18T12:30:24;2.00;;;1.80;;
50104;SDS011;47690;39.202;-77.198;2023-09-18T12:32:57;1.95;;;1.80;;
50104;SDS011;47690;39.202;-77.198;2023-09-18T12:35:34;1.92;;;1.80;;
50104;SDS011;47690;39.202;-77.198;2023-09-18T12:38:15;2.15;;;1.90;;
50104;SDS011;47690;39.202;-77.198;2023-09-18T12:41:00;1.92;;;1.77;;
50104;SDS011;47690;39.202;-77.198;2023-09-18T12:43:43;1.85;;;1.75;;
50104;SDS011;47690;39.202;-77.198;2023-09-18T12:46:19;2.10;;;1.90;;
50104;SDS011;47690;39.202;-77.198;2023-09-18T12:48:52;2.00;;;1.80;;
50104;SDS011;47690;39.202;-77.198;2023-09-18T12:51:30;3.42;;;2.00;;
50104;SDS011;47690;39.202;-77.198;2023-09-18T12:54:07;1.80;;;1.65;;
50104;SDS011;47690;39.202;-77.198;2023-09-18T12:56:43;2.13;;;1.92;;
50104;SDS011;47690;39.202;-77.198;2023-09-18T12:59:19;2.10;;;1.90;;
50104;SDS011;47690;39.202;-77.198;2023-09-18T13:01:52;1.95;;;1.83;;
50104;SDS011;47690;39.202;-77.198;2023-09-18T13:04:28;2.50;;;2.20;;
50104;SDS011;47690;39.202;-77.198;2023-09-18T13:07:10;2.17;;;1.98;;
50104;SDS011;47690;39.202;-77.198;2023-09-18T13:09:57;2.25;;;2.00;;
50104;SDS011;47690;39.202;-77.198;2023-09-18T13:12:46;2.30;;;2.10;;
50104;SDS011;47690;39.202;-77.198;2023-09-18T13:15:24;3.40;;;2.20;;
50104;SDS011;47690;39.202;-77.198;2023-09-18T13:18:12;2.30;;;2.10;;
50104;SDS011;47690;39.202;-77.198;2023-09-18T13:20:45;2.40;;;2.10;;
50104;SDS011;47690;39.202;-77.198;2023-09-18T13:23:16;2.33;;;2.13;;
50104;SDS011;47690;39.202;-77.198;2023-09-18T13:25:58;2.22;;;2.03;;
50104;SDS011;47690;39.202;-77.198;2023-09-18T13:28:36;2.40;;;2.20;;
50104;SDS011;47690;39.202;-77.198;2023-09-18T13:31:11;2.50;;;2.30;;
50104;SDS011;47690;39.202;-77.198;2023-09-18T13:33:45;2.45;;;2.25;;
50104;SDS011;47690;39.202;-77.198;2023-09-18T13:36:22;2.50;;;2.30;;
50104;SDS011;47690;39.202;-77.198;2023-09-18T13:38:52;2.50;;;2.30;;
50104;SDS011;47690;39.202;-77.198;2023-09-18T13:41:33;2.40;;;2.20;;
50104;SDS011;47690;39.202;-77.198;2023-09-18T13:44:09;2.60;;;2.40;;
50104;SDS011;47690;39.202;-77.198;2023-09-18T13:46:49;2.47;;;2.20;;
50104;SDS011;47690;39.202;-77.198;2023-09-18T13:49:23;2.88;;;2.53;;
50104;SDS011;47690;39.202;-77.198;2023-09-18T13:51:56;2.50;;;2.30;;
50104;SDS011;47690;39.202;-77.198;2023-09-18T13:54:35;2.50;;;2.30;;
50104;SDS011;47690;39.202;-77.198;2023-09-18T13:57:12;2.80;;;2.50;;
50104;SDS011;47690;39.202;-77.198;2023-09-18T13:59:48;2.95;;;2.60;;
50104;SDS011;47690;39.202;-77.198;2023-09-18T14:02:26;3.00;;;2.60;;
50104;SDS011;47690;39.202;-77.198;2023-09-18T14:05:04;3.47;;;2.80;;
50104;SDS011;47690;39.202;-77.198;2023-09-18T14:07:45;3.00;;;2.70;;
50104;SDS011;47690;39.202;-77.198;2023-09-18T14:10:18;3.28;;;2.58;;
50104;SDS011;47690;39.202;-77.198;2023-09-18T14:12:55;2.90;;;2.60;;
50104;SDS011;47690;39.202;-77.198;2023-09-18T14:15:28;4.03;;;2.60;;
50104;SDS011;47690;39.202;-77.198;2023-09-18T14:18:08;3.10;;;2.80;;
50104;SDS011;47690;39.202;-77.198;2023-09-18T14:20:45;3.30;;;3.00;;
50104;SDS011;47690;39.202;-77.198;2023-09-18T14:23:16;3.20;;;2.90;;
50104;SDS011;47690;39.202;-77.198;2023-09-18T14:25:47;3.03;;;2.72;;
50104;SDS011;47690;39.202;-77.198;2023-09-18T14:28:23;3.67;;;2.45;;
50104;SDS011;47690;39.202;-77.198;2023-09-18T14:30:55;2.95;;;2.60;;
50104;SDS011;47690;39.202;-77.198;2023-09-18T14:33:36;3.53;;;3.22;;
50104;SDS011;47690;39.202;-77.198;2023-09-18T14:36:10;4.15;;;3.10;;
50104;SDS011;47690;39.202;-77.198;2023-09-18T14:38:48;4.25;;;2.88;;
50104;SDS011;47690;39.202;-77.198;2023-09-18T14:41:40;3.35;;;3.05;;
50104;SDS011;47690;39.202;-77.198;2023-09-18T14:44:24;3.08;;;2.78;;
50104;SDS011;47690;39.202;-77.198;2023-09-18T14:48:51;3.05;;;2.75;;
50104;SDS011;47690;39.202;-77.198;2023-09-18T14:52:21;2.67;;;2.47;;
50104;SDS011;47690;39.202;-77.198;2023-09-18T14:55:48;3.20;;;2.90;;
50104;SDS011;47690;39.202;-77.198;2023-09-18T15:00:26;3.25;;;2.80;;
50104;SDS011;47690;39.202;-77.198;2023-09-18T15:05:38;3.47;;;3.00;;
50104;SDS011;47690;39.202;-77.198;2023-09-18T15:12:55;3.65;;;3.20;;
50104;SDS011;47690;39.202;-77.198;2023-09-18T15:18:31;3.20;;;2.90;;
50104;SDS011;47690;39.202;-77.198;2023-09-18T15:22:54;3.60;;;3.00;;
50104;SDS011;47690;39.202;-77.198;2023-09-18T15:35:51;3.60;;;2.92;;
50104;SDS011;47690;39.202;-77.198;2023-09-18T15:39:48;3.42;;;3.13;;
50104;SDS011;47690;39.202;-77.198;2023-09-18T15:43:50;3.80;;;3.40;;
50104;SDS011;47690;39.202;-77.198;2023-09-18T15:48:02;3.33;;;2.90;;
50104;SDS011;47690;39.202;-77.198;2023-09-18T15:52:14;4.25;;;3.28;;
50104;SDS011;47690;39.202;-77.198;2023-09-18T15:56:22;4.03;;;3.53;;
50104;SDS011;47690;39.202;-77.198;2023-09-18T16:00:06;5.15;;;3.63;;
50104;SDS011;47690;39.202;-77.198;2023-09-18T16:07:22;4.38;;;3.75;;
50104;SDS011;47690;39.202;-77.198;2023-09-18T16:11:08;4.35;;;3.95;;
50104;SDS011;47690;39.202;-77.198;2023-09-18T16:13:56;4.10;;;3.70;;
50104;SDS011;47690;39.202;-77.198;2023-09-18T16:17:43;3.90;;;3.50;;
50104;SDS011;47690;39.202;-77.198;2023-09-18T16:21:15;4.40;;;3.83;;
50104;SDS011;47690;39.202;-77.198;2023-09-18T16:24:12;4.30;;;3.65;;
50104;SDS011;47690;39.202;-77.198;2023-09-18T16:28:28;3.55;;;3.25;;
50104;SDS011;47690;39.202;-77.198;2023-09-18T16:31:58;4.40;;;3.47;;
50104;SDS011;47690;39.202;-77.198;2023-09-18T16:35:16;4.47;;;4.07;;
50104;SDS011;47690;39.202;-77.198;2023-09-18T16:38:09;4.53;;;3.97;;
50104;SDS011;47690;39.202;-77.198;2023-09-18T16:42:31;4.72;;;3.38;;
50104;SDS011;47690;39.202;-77.198;2023-09-18T16:45:58;3.75;;;3.28;;
50104;SDS011;47690;39.202;-77.198;2023-09-18T16:49:02;4.00;;;3.60;;
50104;SDS011;47690;39.202;-77.198;2023-09-18T16:51:56;5.20;;;3.53;;
50104;SDS011;47690;39.202;-77.198;2023-09-18T16:55:15;4.05;;;3.53;;